Mataró





Hora UTC 07:40
Temperatura 25.0 ºC
Humedad 58.7 %
Presión 1020.0 hPa
Pluja 0.0 mm
Velocidad viento 7.5 km/h
Dirección viento NW
Radiación solar 299.2 W/m²

Datos diarios 2022-07-07



Hora UTC (invierno +1h; verano +2h)
Temperatura (ºC) Humedad (%) Presión (hPa) Velocidad viento (km/h) Precipitación (mm) Radiación solar (W/m²)
Hora UTC Aire Humedad Presión Vel. Dir. Vel. Max Dir. Intent. máx 5 min. Rad. Sol.
00:05 23.8 66.3 1019.3 15.1 NNW 15.1 NNW 0.0 0.1
00:10 23.6 67.9 1019.3 17.8 NNW 27.9 NNW 0.0 0.1
00:15 23.5 66.7 1019.4 16.2 NNW 21.9 NNW 0.0 0.1
00:20 23.5 65.4 1019.4 16.3 NNW 23.3 NNW 0.0 0.1
00:25 23.5 64.6 1019.4 13.2 NNW 19.4 NW 0.0 0.1
00:30 23.6 63.7 1019.3 13.3 NNW 19.4 NNW 0.0 0.1
00:35 23.7 63.1 1019.3 12.5 NNW 19.1 NW 0.0 0.1
00:40 23.8 62.6 1019.3 13.6 NNW 18.4 NNW 0.0 0.1
00:45 23.8 62.6 1019.3 13.5 NNW 20.1 NNW 0.0 0.1
00:50 23.7 62.7 1019.3 11.0 NW 15.5 NNW 0.0 0.1
00:55 23.6 62.6 1019.3 13.8 NNW 20.1 NW 0.0 0.1
01:00 23.6 62.8 1019.3 14.6 NNW 20.1 NNW 0.0 0.1
01:05 23.4 63.3 1019.2 15.5 NW 23.3 NW 0.0 0.1
01:10 23.2 64.1 1019.2 13.7 NNW 22.6 NNW 0.0 0.1
01:15 23.1 64.8 1019.2 14.8 NNW 23.6 NNW 0.0 0.1
01:20 23.0 65.4 1019.1 17.5 NNW 24.0 NW 0.0 0.1
01:25 22.8 66.5 1019.1 15.9 NNW 25.1 NW 0.0 0.1
01:30 22.5 67.6 1019.1 18.3 NNW 27.9 NNW 0.0 0.1
01:35 22.3 68.4 1019.1 16.7 NW 26.8 NW 0.0 0.1
01:40 22.2 68.8 1019.1 17.9 NNW 24.7 NW 0.0 0.1
01:45 22.2 68.7 1019.1 16.8 NNW 26.1 NW 0.0 0.1
01:50 22.3 67.6 1019.1 16.2 NNW 22.2 NNW 0.0 0.1
01:55 22.3 67.2 1019.0 16.4 NNW 26.5 NNW 0.0 0.1
02:00 22.3 67.6 1019.0 16.5 NNW 23.3 NW 0.0 0.1
02:05 22.2 67.1 1018.9 13.7 NNW 20.1 NW 0.0 0.1
02:10 22.4 65.4 1018.9 13.6 NNW 19.1 NW 0.0 0.1
02:15 22.5 65.1 1019.0 15.2 NNW 20.1 NNW 0.0 0.1
02:20 22.5 64.9 1018.9 15.0 NNW 20.8 NW 0.0 0.1
02:25 22.6 64.5 1018.9 14.7 NNW 20.8 NNW 0.0 0.1
02:30 22.6 65.4 1019.0 14.0 NW 21.2 NNW 0.0 0.1
02:35 22.4 66.6 1019.0 16.1 NNW 24.0 NNW 0.0 0.1
02:40 22.2 68.0 1018.9 15.6 NW 24.7 NW 0.0 0.1
02:45 22.0 69.2 1018.9 15.8 NNW 21.9 NNW 0.0 0.1
02:50 21.8 70.0 1018.9 15.1 NNW 21.2 NW 0.0 0.1
02:55 21.7 70.1 1018.9 14.7 NW 22.2 NNW 0.0 0.1
03:00 21.8 69.5 1018.9 14.7 NNW 21.2 NNW 0.0 0.1
03:05 21.9 68.7 1018.9 16.4 NNW 21.9 NNW 0.0 0.1
03:10 22.0 68.7 1018.9 16.2 NNW 22.6 NW 0.0 0.1
03:15 21.9 68.8 1018.9 17.1 NNW 22.6 NW 0.0 0.1
03:20 21.9 68.8 1019.0 16.2 NW 23.3 NW 0.0 0.1
03:25 22.0 68.7 1019.0 18.9 NNW 26.5 NW 0.0 0.1
03:30 21.9 69.2 1019.0 18.6 NNW 25.4 NNW 0.0 0.1
03:35 21.8 69.5 1019.1 18.2 NNW 25.1 NNW 0.0 0.1
03:40 21.8 69.4 1019.1 16.0 NNW 22.2 NNW 0.0 0.1
03:45 21.8 69.0 1019.2 14.7 NW 20.5 NW 0.0 0.1
03:50 21.9 69.2 1019.2 15.0 NW 24.0 NW 0.0 0.1
03:55 21.8 69.9 1019.2 16.3 NNW 22.2 NNW 0.0 0.1
04:00 21.7 70.3 1019.2 17.2 NNW 24.0 NNW 0.0 0.1
04:05 21.6 70.6 1019.2 18.2 NNW 26.8 NNW 0.0 0.2
04:10 21.7 69.7 1019.2 15.3 NNW 21.9 NNW 0.0 0.3
04:15 21.9 68.7 1019.2 13.8 NNW 18.0 N 0.0 0.7
04:20 22.1 68.0 1019.2 14.4 NW 20.8 NW 0.0 1.4
04:25 22.1 68.2 1019.2 16.6 NNW 22.2 NW 0.0 2.4
04:30 22.0 68.2 1019.1 16.8 NNW 21.5 NW 0.0 3.3
04:35 22.3 66.3 1019.0 13.8 NW 20.5 NW 0.0 5.3
04:40 22.4 66.1 1019.1 14.8 NNW 20.8 NNW 0.0 7.8
04:45 22.4 65.6 1019.1 13.5 NNW 18.7 NNW 0.0 11.2
04:50 22.5 65.4 1019.1 12.5 NW 18.0 NW 0.0 16.9
04:55 22.6 65.2 1019.1 13.1 NW 18.7 NW 0.0 22.0
05:00 22.7 64.7 1019.1 12.6 NNW 19.1 NNW 0.0 26.2
05:05 22.8 64.5 1019.1 11.8 NNW 15.5 NNW 0.0 30.0
05:10 22.7 64.7 1019.2 11.7 NNW 15.2 NNW 0.0 33.6
05:15 22.7 64.6 1019.2 12.2 NNW 17.6 NW 0.0 37.5
05:20 22.7 64.2 1019.2 11.6 NNW 19.8 NW 0.0 43.6
05:25 22.7 64.2 1019.3 14.8 NNW 21.2 NW 0.0 47.5
05:30 22.7 64.6 1019.3 15.7 NNW 21.9 NW 0.0 60.0
05:35 22.5 65.9 1019.3 18.4 NNW 26.8 NNW 0.0 123.4
05:40 22.3 66.6 1019.4 19.3 NNW 26.8 NNW 0.0 133.4
05:45 22.2 67.2 1019.4 19.2 NNW 28.2 NW 0.0 113.1
05:50 22.1 67.6 1019.4 18.8 NNW 25.8 NW 0.0 136.6
05:55 22.1 67.6 1019.5 18.3 NNW 26.8 NNW 0.0 189.7
06:00 22.3 67.0 1019.5 14.8 NNW 21.5 NNW 0.0 214.0
06:05 22.6 66.0 1019.5 12.9 NNW 20.1 NNW 0.0 230.6
06:10 22.8 65.3 1019.5 12.9 NNW 20.5 NNW 0.0 198.0
06:15 23.0 64.6 1019.5 11.4 NNW 15.9 NNW 0.0 250.3
06:20 23.4 63.6 1019.5 9.1 NW 15.2 NW 0.0 292.9
06:25 23.6 62.4 1019.5 10.5 NNW 18.7 NNW 0.0 224.8
06:30 23.8 62.1 1019.5 10.2 NW 16.9 NW 0.0 323.5
06:35 24.0 61.9 1019.5 9.3 NW 14.8 NW 0.0 254.7
06:40 24.1 61.6 1019.5 8.9 NW 14.8 WNW 0.0 214.6
06:45 24.0 62.1 1019.6 9.7 NW 14.5 WNW 0.0 216.5
06:50 23.9 62.6 1019.6 10.6 NW 16.2 NNW 0.0 337.4
06:55 23.9 62.7 1019.7 14.3 NW 22.2 NW 0.0 344.7
07:00 23.7 63.3 1019.8 13.7 NW 23.3 NW 0.0 358.5
07:05 23.7 63.3 1019.8 13.5 NW 22.2 NW 0.0 374.3
07:10 23.8 62.9 1019.8 14.5 NW 23.6 NW 0.0 392.8
07:15 24.1 62.2 1019.9 13.1 NW 21.9 NW 0.0 308.9
07:20 24.1 62.1 1019.9 13.3 NW 20.1 NW 0.0 177.1
07:25 24.0 62.3 1020.0 11.1 NW 15.9 NNW 0.0 311.3
07:30 24.3 61.2 1020.0 10.3 NW 18.4 NW 0.0 395.7
07:35 24.8 59.4 1020.0 8.7 NNW 13.8 NNW 0.0 284.7
07:40 25.0 58.7 1020.0 7.5 NW 14.5 WNW 0.0 299.2
Máxima 25.2 70.6 1020.0 19.3 NNW 28.2 NW 0.0 395.7
Mínima 20 58.7 1018.9
Total 0.0